Ponce, PR

12:22 PM AST on October 02, 2014 (GMT -0400)
Rafael Hernandez | Change Station
CLOSE
Current Station
Airport
Location: Aquadilla,
Elevation: 236 ft
Nearby Weather Stations

Elev 236 ft 18.49 °N, 67.13 °W | Updated 32 minutes ago

Scattered Clouds
Scattered Clouds
88 °F
Feels Like 98 °F
N
9
Wind Variable Wind from ENE

Today
High -- | Low -- °F
--% Chance of Precip.
Yesterday
High -- | Low -- °F
Precip. -- in
6:16 AM 6:14 PM
First Quarter, 60% visible
Pressure 30.04 in
Visibility 10.0 miles
Clouds Scattered Clouds 4000 ft
Heat Index 98 °F
Dew Point 75 °F
Humidity 66%
Rainfall 0.00 in
Snow Depth Not available.
UV 9 out of 12
Pollen Not available.
Air Quality Not available.
Flu Activity Not available.
METAR TJBQ 021550Z 07008KT 10SM SCT040 31/24 A3004 RMK RWY08 ATIS W

More Conditions Fewer Conditions

Pressure 30.04 in
Visibility 10.0 miles
Clouds Scattered Clouds 4000 ft
Heat Index 98 °F
Dew Point 75 °F
Humidity 66%
Rainfall 0.00 in
Snow Depth Not available.
UV 9 out of 12
Pollen Not available.
Air Quality Not available.
Flu Activity Not available.
METAR TJBQ 021550Z 07008KT 10SM SCT040 31/24 A3004 RMK RWY08 ATIS W

More Conditions Fewer Conditions

10-Day Weather Forecast

Almanac

Astronomy

Oct. 02, 2014 Rise Set
Actual Time 6:16 AM AST 6:14 PM AST
Civil Twilight 5:55 AM AST 6:35 PM AST
Nautical Twilight 5:29 AM AST 7:01 PM AST
Astronomical Twilight 5:04 AM AST 7:26 PM AST
Moon 1:33 PM AST 12:16 AM AST
Length of Visible Light 12h 40m
Length of Day
11h 57m
Tomorrow will be 1m 0s shorter.
First Quarter, 60% of the Moon is Illuminated
Today
First Quarter
Oct 8
Full
Oct 15
Last Quarter
Oct 23
New
Oct 30
First Quarter

Community

WunderPhotos

Upload Photos

1,758,290 photos uploaded!

WunderBlogs® & News

Nearby

Snow Depth

Station Depth Elevation
No new snow has been reported.

Earthquake Activity

City Distance Mag. Time & Date
No recent earthquake activity has been reported nearby.
Minimum magnitude displayed is 2.5.

Coastal Water Temperatures

Place Temperature
Magueyes Islands, PR 84.9 °F
Yabucoa Harbor, PR 84.9 °F

Nearby Weather Stations